CDT,Max TemperatureF,Mean TemperatureF,Min TemperatureF,Max Dew PointF,MeanDew PointF,Min DewpointF,Max Humidity, Mean Humidity, Min Humidity, Max Sea Level PressureIn, Mean Sea Level PressureIn, Min Sea Level PressureIn, Max VisibilityMiles, Mean VisibilityMiles, Min VisibilityMiles, Max Wind SpeedMPH, Mean Wind SpeedMPH, Max Gust SpeedMPH,PrecipitationIn, CloudCover, Events, WindDirDegrees
2012-4-1,60,46,33,40,36,32,100,79,42,29.93,29.78,29.71,10,7,1,9,3,,0.00,3,,16
2012-4-2,55,44,32,36,33,29,100,76,38,30.06,29.99,29.94,10,8,0,13,6,23,0.02,6,Fog,120
2012-4-3,60,47,34,39,33,24,89,64,31,30.04,29.99,29.93,10,10,7,15,6,22,0.01,5,Rain,335
2012-4-4,60,43,26,28,23,19,81,49,21,30.12,30.05,29.99,10,10,10,17,6,23,0.00,0,,356
2012-4-5,51,38,25,25,19,14,85,55,25,30.28,30.19,30.10,10,10,10,12,5,17,0.00,1,,23
2012-4-6,59,39,19,26,20,16,89,50,21,30.38,30.29,30.22,10,10,10,9,3,,0.00,0,,146
2012-4-7,63,44,25,45,30,23,92,57,23,30.26,30.13,29.99,10,10,7,17,6,24,0.00,3,Rain,167
2012-4-8,57,46,35,43,24,15,89,49,20,30.08,30.03,29.97,10,10,9,23,10,39,0.00,2,Rain,288
2012-4-9,50,38,28,25,21,17,78,51,32,30.01,29.94,29.87,10,10,10,23,7,39,0.00,4,,306
2012-4-10,44,37,30,22,19,17,69,54,35,30.15,30.05,29.99,10,10,6,24,13,31,0.00,5,Snow,312
2012-4-11,50,38,28,29,26,19,82,62,41,30.32,30.26,30.16,10,10,10,12,6,16,0.00,2,,336
2012-4-12,59,39,21,31,24,19,100,75,22,30.26,30.21,30.15,10,6,0,12,1,16,0.00,2,Fog,143
2012-4-13,61,43,26,32,27,23,92,58,26,30.22,30.12,29.91,10,10,2,16,4,23,0.00,2,,152
2012-4-14,73,59,45,45,38,32,76,50,25,29.89,29.78,29.69,10,10,10,17,8,24,0.00,3,,200
2012-4-15,64,54,50,60,51,39,100,90,57,29.73,29.56,29.36,10,3,0,9,5,,0.00,7,Fog-Rain,121
2012-4-16,64,45,26,61,41,16,96,83,63,30.21,29.48,29.27,10,6,1,29,11,41,0.82,8,Rain-Snow,273
2012-4-17,52,38,26,29,23,17,85,62,35,30.39,30.31,30.22,10,10,10,15,8,22,0.00,5,,225
2012-4-18,57,44,30,46,38,28,96,84,59,30.26,29.94,29.76,10,8,2,22,10,31,0.13,7,Rain,174
2012-4-19,44,39,35,31,30,28,85,73,60,30.08,30.02,29.95,10,10,10,15,9,,0.00,7,,18
2012-4-20,50,39,30,34,26,11,93,66,23,30.10,29.98,29.89,10,8,2,21,9,33,0.00,5,Rain-Snow,6
2012-4-21,54,38,23,29,22,17,92,57,25,30.13,30.08,30.02,10,10,10,12,3,,0.00,0,,96
2012-4-22,59,42,27,27,20,13,92,48,17,30.22,30.17,30.12,10,10,10,10,5,20,0.00,1,,3
2012-4-23,59,42,27,22,16,9,75,38,14,30.17,30.00,29.81,10,10,10,20,7,26,0.00,0,,343
2012-4-24,64,46,30,27,23,18,64,38,22,29.79,29.70,29.65,10,10,10,21,8,31,0.00,2,,342
2012-4-25,50,39,28,40,32,23,89,69,39,29.79,29.75,29.72,10,10,7,8,2,,0.00,6,Rain,158
2012-4-26,48,39,28,41,30,15,93,69,29,30.20,29.93,29.71,10,10,2,26,10,33,0.06,6,Rain,337
2012-4-27,55,37,19,23,16,9,92,47,17,30.30,30.25,30.21,10,10,10,14,3,20,0.00,0,,41
2012-4-28,53,41,30,25,21,17,73,49,27,30.31,30.27,30.24,10,10,10,9,3,16,0.00,0,,105
2012-4-29,62,43,24,29,20,14,88,46,17,30.35,30.27,30.13,10,10,10,12,4,20,0.00,0,,131
2012-4-30,51,45,39,43,38,18,100,81,33,30.11,29.96,29.89,10,7,1,9,2,,0.00,8,Rain,159